createdAt,value
2019-03-23T00:00:02.329Z,8.62
2019-03-23T00:02:30.668Z,8.67
2019-03-23T00:04:58.984Z,8.71
2019-03-23T00:07:27.243Z,8.65
2019-03-23T00:09:55.680Z,8.58
2019-03-23T00:12:23.925Z,8.64
2019-03-23T00:14:52.177Z,8.53
2019-03-23T00:17:20.524Z,8.38
2019-03-23T00:19:49.098Z,8.29
2019-03-23T00:22:17.432Z,8.29
2019-03-23T00:24:45.757Z,8.19
2019-03-23T00:27:14.021Z,8.17
2019-03-23T00:29:42.372Z,8.15
2019-03-23T00:32:10.784Z,8.08
2019-03-23T00:34:39.079Z,8.10
2019-03-23T00:37:07.338Z,8.04
2019-03-23T00:39:35.728Z,8.00
2019-03-23T00:42:03.980Z,8.00
2019-03-23T00:44:32.240Z,7.97
2019-03-23T00:47:00.663Z,7.95
2019-03-23T00:49:28.958Z,7.95
2019-03-23T00:51:57.921Z,7.97
2019-03-23T00:54:26.305Z,8.03
2019-03-23T00:56:54.666Z,8.10
2019-03-23T00:59:23.201Z,8.13
2019-03-23T01:01:51.554Z,8.09
2019-03-23T01:04:20.373Z,8.12
2019-03-23T01:06:52.332Z,8.19
2019-03-23T01:09:18.844Z,8.19
2019-03-23T01:11:47.137Z,8.24
2019-03-23T01:14:15.529Z,8.28
2019-03-23T01:16:43.830Z,8.34
2019-03-23T01:19:12.081Z,8.37
2019-03-23T01:21:40.389Z,8.38
2019-03-23T01:24:08.657Z,8.38
2019-03-23T01:26:36.936Z,8.42
2019-03-23T01:29:05.229Z,8.45
2019-03-23T01:31:33.533Z,8.46
2019-03-23T01:34:01.926Z,8.47
2019-03-23T01:36:30.177Z,8.45
2019-03-23T01:38:58.450Z,8.45
2019-03-23T01:41:26.816Z,8.44
2019-03-23T01:43:55.300Z,8.43
2019-03-23T01:46:23.528Z,8.44
2019-03-23T01:48:51.781Z,8.42
2019-03-23T01:51:20.224Z,8.41
2019-03-23T01:53:48.475Z,8.42
2019-03-23T01:56:17.293Z,8.43
2019-03-23T01:58:45.730Z,8.39
2019-03-23T02:01:14.049Z,8.38
2019-03-23T02:03:42.308Z,8.39
2019-03-23T02:06:10.714Z,8.40
2019-03-23T02:08:38.982Z,8.36
2019-03-23T02:11:07.230Z,8.35
2019-03-23T02:13:35.565Z,8.37
2019-03-23T02:16:03.820Z,8.38
2019-03-23T02:18:33.111Z,8.39
2019-03-23T02:21:02.236Z,8.38
2019-03-23T02:23:30.490Z,8.39
2019-03-23T02:25:58.934Z,8.41
2019-03-23T02:28:27.241Z,8.40
2019-03-23T02:30:55.555Z,8.43
2019-03-23T02:33:23.858Z,8.45
2019-03-23T02:35:52.683Z,8.44
2019-03-23T02:38:20.950Z,8.46
2019-03-23T02:40:49.278Z,8.45
2019-03-23T02:43:17.595Z,8.44
2019-03-23T02:45:46.054Z,8.44
2019-03-23T02:48:14.349Z,8.43
2019-03-23T02:50:42.796Z,8.44
2019-03-23T02:53:11.049Z,8.44
2019-03-23T02:55:40.391Z,8.42
2019-03-23T02:58:08.722Z,8.38
2019-03-23T03:00:37.040Z,8.37
2019-03-23T03:03:05.403Z,8.37
2019-03-23T03:05:33.681Z,8.36
2019-03-23T03:08:01.926Z,8.35
2019-03-23T03:10:40.722Z,8.33
2019-03-23T03:13:09.062Z,8.31
2019-03-23T03:15:37.362Z,8.28
2019-03-23T03:18:06.688Z,8.28
2019-03-23T03:20:35.062Z,8.27
2019-03-23T03:23:03.612Z,8.25
2019-03-23T03:25:31.952Z,8.24
2019-03-23T03:28:00.387Z,8.21
2019-03-23T03:30:28.717Z,8.18
2019-03-23T03:32:56.966Z,8.14
2019-03-23T03:35:25.250Z,8.09
2019-03-23T03:37:56.706Z,8.05
2019-03-23T03:40:23.522Z,8.02
2019-03-23T03:42:51.858Z,7.96
2019-03-23T03:45:27.729Z,7.93
2019-03-23T03:47:56.134Z,7.90
2019-03-23T03:50:24.422Z,7.86
2019-03-23T03:52:52.666Z,7.83
2019-03-23T03:55:21.081Z,7.79
2019-03-23T03:57:49.337Z,7.75
2019-03-23T04:00:17.661Z,7.72
2019-03-23T04:02:45.952Z,7.66
2019-03-23T04:05:14.237Z,7.65
2019-03-23T04:07:42.623Z,7.62
2019-03-23T04:10:10.876Z,7.58
2019-03-23T04:12:39.147Z,7.55
2019-03-23T04:15:08.785Z,7.53
2019-03-23T04:17:37.162Z,7.51
2019-03-23T04:20:07.940Z,7.49
2019-03-23T04:22:36.753Z,7.46
2019-03-23T04:25:09.332Z,7.43
2019-03-23T04:27:37.632Z,7.39
2019-03-23T04:30:07.309Z,7.34
2019-03-23T04:32:35.595Z,7.31
2019-03-23T04:35:04.584Z,7.28
2019-03-23T04:37:32.901Z,7.27
2019-03-23T04:40:01.501Z,7.22
2019-03-23T04:42:29.928Z,7.21
2019-03-23T04:44:58.213Z,7.19
2019-03-23T04:47:26.837Z,7.16
2019-03-23T04:49:55.112Z,7.13
2019-03-23T04:52:23.412Z,7.12
2019-03-23T04:54:51.796Z,7.09
2019-03-23T04:57:20.107Z,7.08
2019-03-23T04:59:48.402Z,7.06
2019-03-23T05:02:16.699Z,7.03
2019-03-23T05:04:44.997Z,7.01
2019-03-23T05:07:13.657Z,7.00
2019-03-23T05:09:42.346Z,6.97
2019-03-23T05:12:10.690Z,6.94
2019-03-23T05:14:39.511Z,6.93
2019-03-23T05:17:08.042Z,6.91
2019-03-23T05:19:36.340Z,6.90
2019-03-23T05:22:04.592Z,6.88
2019-03-23T05:24:32.931Z,6.86
2019-03-23T05:27:01.400Z,6.84
2019-03-23T05:29:30.102Z,6.81
2019-03-23T05:31:58.351Z,6.80
2019-03-23T05:34:26.660Z,6.78
2019-03-23T05:36:55.703Z,6.76
2019-03-23T05:39:23.991Z,6.76
2019-03-23T05:41:52.272Z,6.77
2019-03-23T05:44:20.725Z,6.74
2019-03-23T05:46:48.973Z,6.83
2019-03-23T05:49:17.859Z,6.79
2019-03-23T05:51:46.543Z,6.87
2019-03-23T05:54:14.785Z,6.91
2019-03-23T05:56:43.068Z,6.92
2019-03-23T05:59:11.347Z,6.96
2019-03-23T06:01:39.599Z,7.00
2019-03-23T06:04:08.047Z,7.01
2019-03-23T06:06:36.294Z,7.01
2019-03-23T06:09:06.448Z,7.11
2019-03-23T06:11:34.732Z,7.16
2019-03-23T06:14:03.291Z,7.17
2019-03-23T06:16:31.753Z,7.21
2019-03-23T06:19:00.049Z,7.25
2019-03-23T06:21:28.295Z,7.27
2019-03-23T06:23:56.609Z,7.30
2019-03-23T06:26:24.892Z,7.31
2019-03-23T06:28:53.141Z,7.34
2019-03-23T06:31:21.522Z,7.38
2019-03-23T06:33:49.790Z,7.44
2019-03-23T06:36:18.082Z,7.47
2019-03-23T06:38:46.347Z,7.51
2019-03-23T06:41:14.743Z,7.54
2019-03-23T06:43:43.018Z,7.58
2019-03-23T06:48:42.213Z,7.70
2019-03-23T06:51:10.526Z,7.69
2019-03-23T06:53:40.349Z,7.71
2019-03-23T06:56:08.612Z,7.74
2019-03-23T06:58:38.585Z,7.77
2019-03-23T07:01:07.058Z,7.79
2019-03-23T07:03:35.340Z,7.83
2019-03-23T07:06:03.778Z,7.86
2019-03-23T07:08:32.420Z,7.89
2019-03-23T07:11:00.823Z,7.94
2019-03-23T07:13:29.170Z,7.99
2019-03-23T07:15:57.439Z,8.06
2019-03-23T07:18:25.673Z,8.10
2019-03-23T07:20:53.975Z,8.16
2019-03-23T07:23:22.231Z,8.21
2019-03-23T07:25:50.542Z,8.27
2019-03-23T07:28:18.826Z,8.32
2019-03-23T07:30:47.081Z,8.36
2019-03-23T07:33:15.469Z,8.40
2019-03-23T07:35:44.238Z,8.46
2019-03-23T07:38:12.535Z,8.52
2019-03-23T07:40:40.826Z,8.59
2019-03-23T07:43:09.150Z,8.65
2019-03-23T07:45:37.445Z,8.70
2019-03-23T07:48:05.698Z,8.76
2019-03-23T07:50:33.977Z,8.80
2019-03-23T07:53:02.333Z,8.84
2019-03-23T07:55:31.362Z,8.90
2019-03-23T07:57:59.638Z,8.94
2019-03-23T08:00:27.896Z,8.99
2019-03-23T08:02:56.174Z,9.00
2019-03-23T08:05:24.436Z,9.04
2019-03-23T08:07:52.748Z,9.11
2019-03-23T08:10:29.516Z,9.13
2019-03-23T08:12:57.852Z,9.18
2019-03-23T08:15:26.241Z,9.23
2019-03-23T08:17:55.103Z,9.27
2019-03-23T08:20:23.806Z,9.31
2019-03-23T08:22:52.827Z,9.36
2019-03-23T08:25:21.124Z,9.37
2019-03-23T08:27:49.441Z,9.40
2019-03-23T08:30:17.706Z,9.42
2019-03-23T08:32:46.043Z,9.45
2019-03-23T08:35:14.308Z,9.48
2019-03-23T08:37:42.622Z,9.51
2019-03-23T08:40:10.977Z,9.52
2019-03-23T08:42:39.324Z,9.55
2019-03-23T08:45:08.221Z,9.56
2019-03-23T08:47:36.462Z,9.59
2019-03-23T08:50:06.348Z,9.63
2019-03-23T08:52:34.608Z,9.67
2019-03-23T08:55:02.920Z,9.70
2019-03-23T08:57:31.187Z,9.75
2019-03-23T08:59:59.508Z,9.80
2019-03-23T09:02:27.821Z,9.85
2019-03-23T09:04:56.074Z,9.89
2019-03-23T09:07:24.338Z,9.95
2019-03-23T09:09:59.171Z,9.99
2019-03-23T09:12:22.637Z,9.98
2019-03-23T09:14:50.912Z,10.00
2019-03-23T09:17:19.225Z,10.03
2019-03-23T09:19:47.521Z,10.05
2019-03-23T09:22:15.819Z,10.12
2019-03-23T09:24:44.160Z,10.18
2019-03-23T09:27:13.566Z,10.24
2019-03-23T09:29:42.691Z,10.30
2019-03-23T09:32:11.451Z,10.34
2019-03-23T09:34:39.861Z,10.39
2019-03-23T09:37:08.692Z,10.42
2019-03-23T09:39:38.022Z,10.45
2019-03-23T09:42:07.154Z,10.52
2019-03-23T09:44:35.595Z,10.54
2019-03-23T09:47:03.910Z,10.61
2019-03-23T09:49:32.201Z,10.64
2019-03-23T09:52:00.509Z,10.67
2019-03-23T09:54:29.038Z,10.68
2019-03-23T09:56:59.595Z,10.75
2019-03-23T09:59:27.999Z,10.78
2019-03-23T10:01:56.334Z,10.83
2019-03-23T10:04:24.637Z,10.86
2019-03-23T10:06:53.067Z,10.92
2019-03-23T10:09:21.319Z,10.97
2019-03-23T10:11:49.580Z,11.02
2019-03-23T10:14:17.901Z,11.08
2019-03-23T10:16:46.254Z,11.13
2019-03-23T10:19:15.275Z,11.19
2019-03-23T10:21:43.582Z,11.25
2019-03-23T10:24:11.886Z,11.32
2019-03-23T10:26:40.154Z,11.37
2019-03-23T10:29:08.449Z,11.40
2019-03-23T10:31:36.836Z,11.40
2019-03-23T10:34:05.227Z,11.43
2019-03-23T10:36:33.474Z,11.47
2019-03-23T10:39:02.735Z,11.48
2019-03-23T10:41:30.988Z,11.53
2019-03-23T10:43:59.243Z,11.52
2019-03-23T10:46:27.633Z,11.52
2019-03-23T10:48:55.888Z,11.51
2019-03-23T10:51:24.230Z,11.47
2019-03-23T10:53:52.556Z,11.41
2019-03-23T10:56:20.817Z,11.40
2019-03-23T10:58:49.098Z,11.43
2019-03-23T11:01:17.354Z,11.46
2019-03-23T11:03:45.643Z,11.49
2019-03-23T11:06:13.944Z,11.48
2019-03-23T11:08:42.221Z,11.49
2019-03-23T11:11:10.469Z,11.55
2019-03-23T11:13:38.781Z,11.55
2019-03-23T11:16:07.071Z,11.60
2019-03-23T11:18:35.340Z,11.62
2019-03-23T11:21:03.685Z,11.68
2019-03-23T11:23:32.075Z,11.72
2019-03-23T11:26:00.380Z,11.75
2019-03-23T11:28:28.663Z,11.80
2019-03-23T11:30:57.003Z,11.78
2019-03-23T11:33:25.260Z,11.80
2019-03-23T11:35:57.667Z,11.85
2019-03-23T11:38:23.579Z,11.80
2019-03-23T11:40:55.061Z,11.81
2019-03-23T11:43:21.963Z,11.82
2019-03-23T11:45:50.251Z,11.80
2019-03-23T11:48:18.528Z,11.80
2019-03-23T11:50:46.788Z,11.75
2019-03-23T11:53:15.125Z,11.79
2019-03-23T11:55:43.558Z,11.80
2019-03-23T11:58:11.851Z,11.79
2019-03-23T12:00:40.484Z,11.77
2019-03-23T12:03:08.742Z,11.80
2019-03-23T12:05:37.000Z,11.79
2019-03-23T12:08:05.352Z,11.73
2019-03-23T12:10:33.603Z,11.70
2019-03-23T12:13:01.919Z,11.71
2019-03-23T12:15:30.232Z,11.69
2019-03-23T12:17:58.509Z,11.66
2019-03-23T12:20:26.831Z,11.59
2019-03-23T12:22:55.141Z,11.49
2019-03-23T12:25:23.657Z,11.39
2019-03-23T12:27:51.901Z,11.41
2019-03-23T12:30:20.157Z,11.42
2019-03-23T12:32:48.438Z,11.41
2019-03-23T12:35:16.818Z,11.33
2019-03-23T12:37:45.105Z,11.33
2019-03-23T12:40:13.432Z,11.28
2019-03-23T12:42:41.712Z,11.26
2019-03-23T12:45:10.880Z,11.26
2019-03-23T12:47:39.159Z,11.25
2019-03-23T12:50:08.246Z,11.26
2019-03-23T12:52:36.568Z,11.23
2019-03-23T12:55:08.831Z,11.16
2019-03-23T12:57:37.185Z,11.07
2019-03-23T13:00:14.672Z,10.98
2019-03-23T13:02:43.051Z,10.87
2019-03-23T13:05:11.306Z,10.86
2019-03-23T13:07:39.565Z,10.81
2019-03-23T13:10:12.542Z,10.71
2019-03-23T13:12:40.785Z,10.62
2019-03-23T13:15:11.280Z,10.60
2019-03-23T13:17:39.609Z,10.56
2019-03-23T13:20:09.010Z,10.54
2019-03-23T13:22:37.301Z,10.53
2019-03-23T13:25:07.844Z,10.55
2019-03-23T13:27:36.087Z,10.59
2019-03-23T13:30:13.233Z,10.63
2019-03-23T13:32:41.545Z,10.68
2019-03-23T13:35:09.841Z,10.75
2019-03-23T13:37:38.088Z,10.75
2019-03-23T13:40:07.515Z,10.77
2019-03-23T13:42:35.785Z,10.74
2019-03-23T13:45:07.058Z,10.74
2019-03-23T13:47:35.311Z,10.81
2019-03-23T13:50:05.280Z,10.93
2019-03-23T13:52:33.547Z,11.04
2019-03-23T13:55:01.970Z,11.09
2019-03-23T13:57:30.394Z,11.07
2019-03-23T13:59:58.667Z,11.06
2019-03-23T14:02:27.105Z,11.12
2019-03-23T14:04:55.358Z,11.21
2019-03-23T14:07:23.754Z,11.29
2019-03-23T14:09:52.164Z,11.38
2019-03-23T14:12:20.401Z,11.43
2019-03-23T14:14:48.832Z,11.45
2019-03-23T14:17:17.945Z,11.50
2019-03-23T14:19:46.400Z,11.53
2019-03-23T14:22:14.664Z,11.57
2019-03-23T14:24:42.967Z,11.67
2019-03-23T14:27:11.367Z,11.84
2019-03-23T14:29:39.655Z,12.05
2019-03-23T14:32:08.618Z,12.40
2019-03-23T14:34:36.869Z,12.66
2019-03-23T14:37:05.164Z,12.91
2019-03-23T14:39:34.044Z,13.04
2019-03-23T14:42:05.081Z,13.14
2019-03-23T14:44:32.395Z,13.23
2019-03-23T14:47:00.668Z,13.14
2019-03-23T14:49:28.921Z,13.05
2019-03-23T14:51:57.214Z,13.02
2019-03-23T14:54:25.465Z,13.00
2019-03-23T14:56:54.633Z,12.95
2019-03-23T14:59:22.937Z,12.97
2019-03-23T15:01:51.191Z,13.03
2019-03-23T15:04:20.054Z,13.02
2019-03-23T15:06:48.326Z,12.85
2019-03-23T15:09:16.609Z,12.67
2019-03-23T15:11:44.961Z,12.56
2019-03-23T15:14:13.206Z,12.52
2019-03-23T15:16:41.453Z,12.55
2019-03-23T15:19:09.732Z,12.43
2019-03-23T15:21:37.979Z,12.41
2019-03-23T15:24:06.358Z,12.37
2019-03-23T15:26:34.607Z,12.40
2019-03-23T15:29:02.871Z,12.47
2019-03-23T15:31:31.257Z,12.52
2019-03-23T15:33:59.515Z,12.53
2019-03-23T15:36:27.762Z,12.40
2019-03-23T15:38:56.154Z,12.42
2019-03-23T15:41:24.839Z,12.44
2019-03-23T15:43:53.156Z,12.47
2019-03-23T15:46:21.495Z,12.58
2019-03-23T15:48:49.749Z,12.70
2019-03-23T15:51:18.130Z,12.69
2019-03-23T15:53:46.372Z,12.69
2019-03-23T15:56:14.616Z,12.74
2019-03-23T15:58:42.919Z,12.71
2019-03-23T16:01:11.237Z,12.66
2019-03-23T16:03:39.483Z,12.59
2019-03-23T16:06:07.900Z,12.59
2019-03-23T16:08:36.183Z,12.55
2019-03-23T16:11:04.481Z,12.44
2019-03-23T16:13:32.877Z,12.35
2019-03-23T16:16:01.137Z,12.29
2019-03-23T16:18:29.425Z,12.26
2019-03-23T16:20:57.704Z,12.29
2019-03-23T16:23:26.043Z,12.22
2019-03-23T16:25:54.343Z,12.17
2019-03-23T16:28:22.690Z,12.14
2019-03-23T16:30:51.010Z,12.07
2019-03-23T16:33:19.273Z,11.95
2019-03-23T16:35:47.555Z,11.88
2019-03-23T16:38:15.950Z,11.80
2019-03-23T16:40:44.273Z,11.70
2019-03-23T16:43:12.514Z,11.57
2019-03-23T16:45:40.802Z,11.46
2019-03-23T16:48:09.111Z,11.42
2019-03-23T16:50:37.399Z,11.35
2019-03-23T16:53:05.737Z,11.32
2019-03-23T16:55:34.032Z,11.26
2019-03-23T16:58:02.351Z,11.18
2019-03-23T17:00:37.674Z,11.15
2019-03-23T17:03:06.212Z,11.02
2019-03-23T17:05:36.372Z,10.88
2019-03-23T17:08:04.605Z,10.83
2019-03-23T17:10:32.910Z,10.78
2019-03-23T17:13:01.185Z,10.75
2019-03-23T17:15:29.461Z,10.67
2019-03-23T17:17:57.741Z,10.69
2019-03-23T17:20:26.005Z,10.64
2019-03-23T17:22:54.269Z,10.62
2019-03-23T17:25:22.869Z,10.54
2019-03-23T17:27:51.153Z,10.43
2019-03-23T17:30:19.516Z,10.36
2019-03-23T17:32:47.815Z,10.28
2019-03-23T17:35:16.108Z,10.19
2019-03-23T17:37:44.404Z,10.11
2019-03-23T17:40:12.776Z,10.07
2019-03-23T17:42:41.067Z,9.99
2019-03-23T17:45:09.888Z,9.95
2019-03-23T17:47:38.244Z,9.93
2019-03-23T17:50:06.513Z,9.85
2019-03-23T17:52:35.112Z,9.77
2019-03-23T17:55:04.502Z,9.71
2019-03-23T17:57:32.771Z,9.56
2019-03-23T18:00:01.045Z,9.49
2019-03-23T18:02:29.390Z,9.40
2019-03-23T18:04:57.684Z,9.32
2019-03-23T18:07:25.950Z,9.18
2019-03-23T18:09:54.339Z,9.17
2019-03-23T18:12:22.762Z,9.06
2019-03-23T18:14:51.048Z,8.99
2019-03-23T18:17:19.288Z,8.95
2019-03-23T18:19:47.720Z,8.89
2019-03-23T18:22:15.981Z,8.83
2019-03-23T18:24:44.228Z,8.80
2019-03-23T18:27:12.502Z,8.79
2019-03-23T18:29:40.958Z,8.73
2019-03-23T18:32:09.323Z,8.66
2019-03-23T18:34:37.611Z,8.65
2019-03-23T18:37:06.056Z,8.60
2019-03-23T18:39:34.515Z,8.57
2019-03-23T18:42:02.818Z,8.56
2019-03-23T18:44:31.061Z,8.49
2019-03-23T18:46:59.306Z,8.43
2019-03-23T18:49:27.696Z,8.42
2019-03-23T18:51:55.977Z,8.39
2019-03-23T18:54:24.255Z,8.34
2019-03-23T18:56:52.517Z,8.32
2019-03-23T18:59:20.820Z,8.28
2019-03-23T19:01:49.091Z,8.24
2019-03-23T19:04:17.327Z,8.22
2019-03-23T19:06:45.637Z,8.20
2019-03-23T19:09:13.963Z,8.18
2019-03-23T19:11:42.249Z,8.12
2019-03-23T19:14:12.252Z,8.07
2019-03-23T19:16:41.291Z,8.07
2019-03-23T19:19:09.893Z,8.02
2019-03-23T19:21:38.326Z,7.95
2019-03-23T19:24:06.636Z,7.90
2019-03-23T19:26:34.880Z,7.84
2019-03-23T19:29:03.148Z,7.79
2019-03-23T19:31:31.595Z,7.77
2019-03-23T19:34:00.754Z,7.74
2019-03-23T19:36:29.061Z,7.72
2019-03-23T19:38:57.319Z,7.66
2019-03-23T19:41:25.773Z,7.62
2019-03-23T19:43:54.024Z,7.61
2019-03-23T19:46:22.314Z,7.59
2019-03-23T19:48:50.619Z,7.58
2019-03-23T19:51:18.919Z,7.55
2019-03-23T19:53:47.339Z,7.54
2019-03-23T19:56:15.582Z,7.49
2019-03-23T19:58:43.896Z,7.47
2019-03-23T20:01:12.206Z,7.42
2019-03-23T20:03:40.564Z,7.40
2019-03-23T20:06:08.936Z,7.39
2019-03-23T20:08:37.282Z,7.35
2019-03-23T20:11:05.577Z,7.32
2019-03-23T20:13:33.863Z,7.31
2019-03-23T20:16:02.191Z,7.29
2019-03-23T20:18:30.577Z,7.26
2019-03-23T20:20:58.822Z,7.20
2019-03-23T20:23:27.190Z,7.17
2019-03-23T20:25:55.594Z,7.13
2019-03-23T20:28:23.841Z,7.10
2019-03-23T20:30:52.091Z,7.06
2019-03-23T20:33:20.450Z,7.03
2019-03-23T20:35:48.692Z,7.00
2019-03-23T20:38:17.178Z,6.99
2019-03-23T20:40:45.455Z,6.96
2019-03-23T20:43:13.735Z,6.92
2019-03-23T20:45:41.993Z,6.93
2019-03-23T20:48:10.258Z,6.92
2019-03-23T20:50:38.534Z,6.88
2019-03-23T20:53:06.811Z,6.87
2019-03-23T20:55:35.109Z,6.87
2019-03-23T20:58:03.357Z,6.83
2019-03-23T21:00:31.607Z,6.83
2019-03-23T21:02:59.882Z,6.82
2019-03-23T21:05:33.760Z,6.81
2019-03-23T21:07:58.099Z,6.80
2019-03-23T21:10:26.421Z,6.77
2019-03-23T21:12:54.818Z,6.77
2019-03-23T21:15:23.221Z,6.76
2019-03-23T21:17:51.746Z,6.72
2019-03-23T21:20:20.058Z,6.69
2019-03-23T21:22:48.324Z,6.68
2019-03-23T21:25:16.809Z,6.64
2019-03-23T21:27:45.127Z,6.61
2019-03-23T21:30:14.934Z,6.63
2019-03-23T21:32:43.279Z,6.59
2019-03-23T21:35:11.954Z,6.55
2019-03-23T21:37:40.513Z,6.53
2019-03-23T21:40:08.759Z,6.53
2019-03-23T21:42:37.052Z,6.51
2019-03-23T21:45:08.203Z,6.50
2019-03-23T21:47:36.456Z,6.47
2019-03-23T21:50:07.146Z,6.44
2019-03-23T21:52:35.492Z,6.43
2019-03-23T21:55:04.621Z,6.41
2019-03-23T21:57:32.855Z,6.40
2019-03-23T22:00:01.154Z,6.39
2019-03-23T22:02:29.545Z,6.37
2019-03-23T22:04:57.781Z,6.36
2019-03-23T22:07:26.038Z,6.35
2019-03-23T22:09:54.330Z,6.31
2019-03-23T22:12:22.690Z,6.28
2019-03-23T22:14:50.960Z,6.25
2019-03-23T22:17:19.306Z,6.23
2019-03-23T22:19:47.622Z,6.20
2019-03-23T22:22:15.922Z,6.17
2019-03-23T22:24:44.242Z,6.15
2019-03-23T22:27:12.492Z,6.12
2019-03-23T22:29:40.747Z,6.06
2019-03-23T22:32:09.154Z,6.01
2019-03-23T22:34:37.435Z,5.98
2019-03-23T22:37:05.731Z,5.95
2019-03-23T22:39:34.132Z,5.93
2019-03-23T22:42:02.372Z,5.91
2019-03-23T22:44:30.743Z,5.84
2019-03-23T22:46:59.048Z,5.81
2019-03-23T22:49:28.087Z,5.74
2019-03-23T22:51:56.846Z,5.74
2019-03-23T22:54:25.164Z,5.75
2019-03-23T22:56:53.494Z,5.74
2019-03-23T22:59:21.806Z,5.73
2019-03-23T23:01:50.152Z,5.73
2019-03-23T23:04:18.482Z,5.71
2019-03-23T23:06:46.781Z,5.68
2019-03-23T23:09:15.202Z,5.63
2019-03-23T23:11:43.529Z,5.63
2019-03-23T23:14:11.801Z,5.64
2019-03-23T23:16:40.212Z,5.61
2019-03-23T23:19:08.457Z,5.61
2019-03-23T23:21:36.706Z,5.59
2019-03-23T23:24:04.971Z,5.53
2019-03-23T23:26:33.535Z,5.53
2019-03-23T23:29:01.909Z,5.53
2019-03-23T23:31:30.292Z,5.52
2019-03-23T23:33:58.528Z,5.48
2019-03-23T23:36:26.824Z,5.48
2019-03-23T23:38:55.087Z,5.43
2019-03-23T23:41:23.355Z,5.42
2019-03-23T23:43:51.676Z,5.40
2019-03-23T23:46:19.914Z,5.40
2019-03-23T23:48:51.487Z,5.44
2019-03-23T23:51:18.161Z,5.43
2019-03-23T23:53:46.556Z,5.40
2019-03-23T23:56:14.794Z,5.40
2019-03-23T23:58:43.044Z,5.40
